sensor_id;sensor_type;location;lat;lon;timestamp;temperature;humidity
61591;DHT22;57639;52.410;-1.966;2023-07-02T00:02:24;19.10;52.90
61591;DHT22;57639;52.410;-1.966;2023-07-02T00:05:30;19.10;52.60
61591;DHT22;57639;52.410;-1.966;2023-07-02T00:08:39;19.10;52.70
61591;DHT22;57639;52.410;-1.966;2023-07-02T00:11:47;19.10;52.80
61591;DHT22;57639;52.410;-1.966;2023-07-02T00:14:56;19.10;52.90
61591;DHT22;57639;52.410;-1.966;2023-07-02T00:18:02;19.00;52.70
61591;DHT22;57639;52.410;-1.966;2023-07-02T00:21:08;19.10;52.90
61591;DHT22;57639;52.410;-1.966;2023-07-02T00:24:17;19.10;52.70
61591;DHT22;57639;52.410;-1.966;2023-07-02T00:27:23;19.00;52.80
61591;DHT22;57639;52.410;-1.966;2023-07-02T00:30:32;19.10;52.90
61591;DHT22;57639;52.410;-1.966;2023-07-02T00:33:38;19.00;53.00
61591;DHT22;57639;52.410;-1.966;2023-07-02T00:36:45;19.00;52.90
61591;DHT22;57639;52.410;-1.966;2023-07-02T00:39:51;19.00;53.00
61591;DHT22;57639;52.410;-1.966;2023-07-02T00:42:57;19.00;52.90
61591;DHT22;57639;52.410;-1.966;2023-07-02T00:46:06;19.00;53.00
61591;DHT22;57639;52.410;-1.966;2023-07-02T00:49:12;19.00;52.90
61591;DHT22;57639;52.410;-1.966;2023-07-02T00:52:19;19.00;52.80
61591;DHT22;57639;52.410;-1.966;2023-07-02T00:55:26;19.00;53.00
61591;DHT22;57639;52.410;-1.966;2023-07-02T00:58:34;19.00;53.00
61591;DHT22;57639;52.410;-1.966;2023-07-02T01:01:43;19.00;53.00
61591;DHT22;57639;52.410;-1.966;2023-07-02T01:04:52;19.00;52.90
61591;DHT22;57639;52.410;-1.966;2023-07-02T01:08:01;19.00;52.80
61591;DHT22;57639;52.410;-1.966;2023-07-02T01:11:08;19.00;52.80
61591;DHT22;57639;52.410;-1.966;2023-07-02T01:14:20;19.00;52.70
61591;DHT22;57639;52.410;-1.966;2023-07-02T01:17:31;19.00;52.70
61591;DHT22;57639;52.410;-1.966;2023-07-02T01:20:46;19.00;52.80
61591;DHT22;57639;52.410;-1.966;2023-07-02T01:23:53;19.00;52.80
61591;DHT22;57639;52.410;-1.966;2023-07-02T01:26:59;18.90;52.80
61591;DHT22;57639;52.410;-1.966;2023-07-02T01:30:07;18.90;52.90
61591;DHT22;57639;52.410;-1.966;2023-07-02T01:33:14;18.90;52.90
61591;DHT22;57639;52.410;-1.966;2023-07-02T01:36:23;18.90;52.90
61591;DHT22;57639;52.410;-1.966;2023-07-02T01:39:30;18.90;52.90
61591;DHT22;57639;52.410;-1.966;2023-07-02T01:42:36;18.90;53.00
61591;DHT22;57639;52.410;-1.966;2023-07-02T01:45:42;18.90;52.80
61591;DHT22;57639;52.410;-1.966;2023-07-02T01:48:49;18.90;53.00
61591;DHT22;57639;52.410;-1.966;2023-07-02T01:51:58;18.90;52.80
61591;DHT22;57639;52.410;-1.966;2023-07-02T01:55:05;18.90;52.80
61591;DHT22;57639;52.410;-1.966;2023-07-02T01:58:11;18.80;52.90
61591;DHT22;57639;52.410;-1.966;2023-07-02T02:01:17;18.80;52.90
61591;DHT22;57639;52.410;-1.966;2023-07-02T02:04:24;18.80;53.00
61591;DHT22;57639;52.410;-1.966;2023-07-02T02:07:33;18.80;52.90
61591;DHT22;57639;52.410;-1.966;2023-07-02T02:10:39;18.80;52.70
61591;DHT22;57639;52.410;-1.966;2023-07-02T02:13:45;18.80;52.60
61591;DHT22;57639;52.410;-1.966;2023-07-02T02:16:52;18.80;52.80
61591;DHT22;57639;52.410;-1.966;2023-07-02T02:20:05;18.80;52.70
61591;DHT22;57639;52.410;-1.966;2023-07-02T02:23:16;18.80;52.80
61591;DHT22;57639;52.410;-1.966;2023-07-02T02:26:23;18.80;52.70
61591;DHT22;57639;52.410;-1.966;2023-07-02T02:29:34;18.80;52.70
61591;DHT22;57639;52.410;-1.966;2023-07-02T02:32:41;18.80;52.70
61591;DHT22;57639;52.410;-1.966;2023-07-02T02:35:48;18.80;52.90
61591;DHT22;57639;52.410;-1.966;2023-07-02T02:38:58;18.80;52.80
61591;DHT22;57639;52.410;-1.966;2023-07-02T02:42:05;18.80;52.70
61591;DHT22;57639;52.410;-1.966;2023-07-02T02:45:11;18.70;52.80
61591;DHT22;57639;52.410;-1.966;2023-07-02T02:48:19;18.70;52.60
61591;DHT22;57639;52.410;-1.966;2023-07-02T02:51:26;18.80;52.60
61591;DHT22;57639;52.410;-1.966;2023-07-02T02:54:35;18.70;52.70
61591;DHT22;57639;52.410;-1.966;2023-07-02T02:57:41;18.70;52.60
61591;DHT22;57639;52.410;-1.966;2023-07-02T03:00:49;18.70;52.70
61591;DHT22;57639;52.410;-1.966;2023-07-02T03:04:00;18.70;52.60
61591;DHT22;57639;52.410;-1.966;2023-07-02T03:07:07;18.70;52.70
61591;DHT22;57639;52.410;-1.966;2023-07-02T03:10:16;18.70;52.90
61591;DHT22;57639;52.410;-1.966;2023-07-02T03:13:23;18.70;52.60
61591;DHT22;57639;52.410;-1.966;2023-07-02T03:16:31;18.70;52.70
61591;DHT22;57639;52.410;-1.966;2023-07-02T03:19:37;18.60;52.70
61591;DHT22;57639;52.410;-1.966;2023-07-02T03:22:43;18.60;52.70
61591;DHT22;57639;52.410;-1.966;2023-07-02T03:25:53;18.70;52.70
61591;DHT22;57639;52.410;-1.966;2023-07-02T03:29:00;18.60;52.90
61591;DHT22;57639;52.410;-1.966;2023-07-02T03:32:07;18.60;52.50
61591;DHT22;57639;52.410;-1.966;2023-07-02T03:35:14;18.60;52.70
61591;DHT22;57639;52.410;-1.966;2023-07-02T03:38:21;18.60;52.70
61591;DHT22;57639;52.410;-1.966;2023-07-02T03:41:33;18.60;52.80
61591;DHT22;57639;52.410;-1.966;2023-07-02T03:44:42;18.60;52.70
61591;DHT22;57639;52.410;-1.966;2023-07-02T03:47:49;18.60;52.60
61591;DHT22;57639;52.410;-1.966;2023-07-02T03:50:53;18.60;52.60
61591;DHT22;57639;52.410;-1.966;2023-07-02T03:54:16;18.60;52.60
61591;DHT22;57639;52.410;-1.966;2023-07-02T03:57:42;18.60;52.50
61591;DHT22;57639;52.410;-1.966;2023-07-02T04:00:48;18.60;52.40
61591;DHT22;57639;52.410;-1.966;2023-07-02T04:03:55;18.60;52.60
61591;DHT22;57639;52.410;-1.966;2023-07-02T04:07:02;18.60;53.00
61591;DHT22;57639;52.410;-1.966;2023-07-02T04:10:08;18.60;52.90
61591;DHT22;57639;52.410;-1.966;2023-07-02T04:13:18;18.60;52.70
61591;DHT22;57639;52.410;-1.966;2023-07-02T04:16:24;18.60;52.70
61591;DHT22;57639;52.410;-1.966;2023-07-02T04:19:30;18.60;52.70
61591;DHT22;57639;52.410;-1.966;2023-07-02T04:22:36;18.60;52.70
61591;DHT22;57639;52.410;-1.966;2023-07-02T04:25:42;18.60;52.70
61591;DHT22;57639;52.410;-1.966;2023-07-02T04:28:52;18.60;52.80
61591;DHT22;57639;52.410;-1.966;2023-07-02T04:31:58;18.60;52.50
61591;DHT22;57639;52.410;-1.966;2023-07-02T04:35:05;18.60;52.40
61591;DHT22;57639;52.410;-1.966;2023-07-02T04:38:11;18.60;52.50
61591;DHT22;57639;52.410;-1.966;2023-07-02T04:41:18;18.60;52.70
61591;DHT22;57639;52.410;-1.966;2023-07-02T04:44:27;18.60;52.60
61591;DHT22;57639;52.410;-1.966;2023-07-02T04:47:35;18.60;52.70
61591;DHT22;57639;52.410;-1.966;2023-07-02T04:50:42;18.60;52.70
61591;DHT22;57639;52.410;-1.966;2023-07-02T04:53:48;18.60;52.70
61591;DHT22;57639;52.410;-1.966;2023-07-02T04:56:54;18.60;52.60
61591;DHT22;57639;52.410;-1.966;2023-07-02T05:00:05;18.60;52.70
61591;DHT22;57639;52.410;-1.966;2023-07-02T05:03:12;18.60;52.60
61591;DHT22;57639;52.410;-1.966;2023-07-02T05:06:18;18.60;52.50
61591;DHT22;57639;52.410;-1.966;2023-07-02T05:09:25;18.60;52.50
61591;DHT22;57639;52.410;-1.966;2023-07-02T05:12:32;18.60;52.50
61591;DHT22;57639;52.410;-1.966;2023-07-02T05:15:41;18.50;52.30
61591;DHT22;57639;52.410;-1.966;2023-07-02T05:18:47;18.60;52.40
61591;DHT22;57639;52.410;-1.966;2023-07-02T05:21:53;18.60;52.30
61591;DHT22;57639;52.410;-1.966;2023-07-02T05:25:00;18.60;52.40
61591;DHT22;57639;52.410;-1.966;2023-07-02T05:28:06;18.60;52.20
61591;DHT22;57639;52.410;-1.966;2023-07-02T05:31:15;18.60;52.30
61591;DHT22;57639;52.410;-1.966;2023-07-02T05:34:21;18.60;52.30
61591;DHT22;57639;52.410;-1.966;2023-07-02T05:37:28;18.60;52.20
61591;DHT22;57639;52.410;-1.966;2023-07-02T05:40:34;18.60;52.20
61591;DHT22;57639;52.410;-1.966;2023-07-02T05:43:40;18.50;52.20
61591;DHT22;57639;52.410;-1.966;2023-07-02T05:46:49;18.60;52.40
61591;DHT22;57639;52.410;-1.966;2023-07-02T05:49:55;18.60;52.20
61591;DHT22;57639;52.410;-1.966;2023-07-02T05:53:01;18.60;52.30
61591;DHT22;57639;52.410;-1.966;2023-07-02T05:56:08;18.50;52.30
61591;DHT22;57639;52.410;-1.966;2023-07-02T05:59:14;18.50;52.40
61591;DHT22;57639;52.410;-1.966;2023-07-02T06:02:24;18.50;52.20
61591;DHT22;57639;52.410;-1.966;2023-07-02T06:05:31;18.60;52.50
61591;DHT22;57639;52.410;-1.966;2023-07-02T06:08:37;18.50;52.30
61591;DHT22;57639;52.410;-1.966;2023-07-02T06:11:43;18.50;52.50
61591;DHT22;57639;52.410;-1.966;2023-07-02T06:14:49;18.60;52.80
61591;DHT22;57639;52.410;-1.966;2023-07-02T06:17:58;18.60;52.80
61591;DHT22;57639;52.410;-1.966;2023-07-02T06:21:05;18.60;52.70
61591;DHT22;57639;52.410;-1.966;2023-07-02T06:24:11;18.50;52.60
61591;DHT22;57639;52.410;-1.966;2023-07-02T06:27:17;18.60;52.60
61591;DHT22;57639;52.410;-1.966;2023-07-02T06:30:23;18.60;52.60
61591;DHT22;57639;52.410;-1.966;2023-07-02T06:33:32;18.50;52.70
61591;DHT22;57639;52.410;-1.966;2023-07-02T06:36:39;18.60;52.80
61591;DHT22;57639;52.410;-1.966;2023-07-02T06:39:45;18.60;52.80
61591;DHT22;57639;52.410;-1.966;2023-07-02T06:42:51;18.60;52.90
61591;DHT22;57639;52.410;-1.966;2023-07-02T06:45:58;18.60;52.90
61591;DHT22;57639;52.410;-1.966;2023-07-02T06:49:07;18.60;52.90
61591;DHT22;57639;52.410;-1.966;2023-07-02T06:52:13;18.60;53.00
61591;DHT22;57639;52.410;-1.966;2023-07-02T06:55:20;18.60;53.00
61591;DHT22;57639;52.410;-1.966;2023-07-02T06:58:26;18.50;53.00
61591;DHT22;57639;52.410;-1.966;2023-07-02T07:01:38;18.60;53.10
61591;DHT22;57639;52.410;-1.966;2023-07-02T07:05:04;18.60;53.00
61591;DHT22;57639;52.410;-1.966;2023-07-02T07:08:28;18.60;53.10
61591;DHT22;57639;52.410;-1.966;2023-07-02T07:11:34;18.60;53.20
61591;DHT22;57639;52.410;-1.966;2023-07-02T07:14:40;18.60;53.30
61591;DHT22;57639;52.410;-1.966;2023-07-02T07:17:47;18.60;53.30
61591;DHT22;57639;52.410;-1.966;2023-07-02T07:20:56;18.60;53.30
61591;DHT22;57639;52.410;-1.966;2023-07-02T07:24:03;18.60;53.30
61591;DHT22;57639;52.410;-1.966;2023-07-02T07:27:10;18.60;53.40
61591;DHT22;57639;52.410;-1.966;2023-07-02T07:30:16;18.60;53.40
61591;DHT22;57639;52.410;-1.966;2023-07-02T07:33:25;18.60;53.50
61591;DHT22;57639;52.410;-1.966;2023-07-02T07:36:34;18.60;53.60
61591;DHT22;57639;52.410;-1.966;2023-07-02T07:39:40;18.60;53.60
61591;DHT22;57639;52.410;-1.966;2023-07-02T07:42:47;18.60;53.70
61591;DHT22;57639;52.410;-1.966;2023-07-02T07:45:53;18.60;53.70
61591;DHT22;57639;52.410;-1.966;2023-07-02T07:48:59;18.60;53.50
61591;DHT22;57639;52.410;-1.966;2023-07-02T07:52:09;18.60;53.50
61591;DHT22;57639;52.410;-1.966;2023-07-02T07:55:15;18.60;53.40
61591;DHT22;57639;52.410;-1.966;2023-07-02T07:58:22;18.60;53.50
61591;DHT22;57639;52.410;-1.966;2023-07-02T08:01:28;18.60;53.40
61591;DHT22;57639;52.410;-1.966;2023-07-02T08:04:35;18.60;53.50
61591;DHT22;57639;52.410;-1.966;2023-07-02T08:07:44;18.60;53.40
61591;DHT22;57639;52.410;-1.966;2023-07-02T08:10:50;18.60;53.40
61591;DHT22;57639;52.410;-1.966;2023-07-02T08:13:57;18.60;53.50
61591;DHT22;57639;52.410;-1.966;2023-07-02T08:17:03;18.50;53.40
61591;DHT22;57639;52.410;-1.966;2023-07-02T08:20:11;18.60;53.40
61591;DHT22;57639;52.410;-1.966;2023-07-02T08:23:20;18.60;53.30
61591;DHT22;57639;52.410;-1.966;2023-07-02T08:26:26;18.50;53.40
61591;DHT22;57639;52.410;-1.966;2023-07-02T08:29:32;18.60;53.40
61591;DHT22;57639;52.410;-1.966;2023-07-02T08:32:39;18.50;53.30
61591;DHT22;57639;52.410;-1.966;2023-07-02T08:35:46;18.60;53.40
61591;DHT22;57639;52.410;-1.966;2023-07-02T08:38:55;18.50;53.50
61591;DHT22;57639;52.410;-1.966;2023-07-02T08:42:01;18.50;53.40
61591;DHT22;57639;52.410;-1.966;2023-07-02T08:45:08;18.60;53.50
61591;DHT22;57639;52.410;-1.966;2023-07-02T08:48:16;18.60;53.40
61591;DHT22;57639;52.410;-1.966;2023-07-02T08:51:25;18.60;53.50
61591;DHT22;57639;52.410;-1.966;2023-07-02T08:54:34;18.60;53.50
61591;DHT22;57639;52.410;-1.966;2023-07-02T08:57:40;18.60;53.40
61591;DHT22;57639;52.410;-1.966;2023-07-02T09:01:04;18.60;53.40
61591;DHT22;57639;52.410;-1.966;2023-07-02T09:04:15;18.50;53.40
61591;DHT22;57639;52.410;-1.966;2023-07-02T09:07:21;18.50;53.40
61591;DHT22;57639;52.410;-1.966;2023-07-02T09:10:31;18.60;53.40
61591;DHT22;57639;52.410;-1.966;2023-07-02T09:13:45;18.60;53.60
61591;DHT22;57639;52.410;-1.966;2023-07-02T09:17:02;18.60;53.50
61591;DHT22;57639;52.410;-1.966;2023-07-02T09:20:08;18.50;53.60
61591;DHT22;57639;52.410;-1.966;2023-07-02T09:23:16;18.50;53.60
61591;DHT22;57639;52.410;-1.966;2023-07-02T09:26:25;18.60;53.80
61591;DHT22;57639;52.410;-1.966;2023-07-02T09:29:33;18.50;53.90
61591;DHT22;57639;52.410;-1.966;2023-07-02T09:32:39;18.60;54.00
61591;DHT22;57639;52.410;-1.966;2023-07-02T09:35:46;18.60;53.90
61591;DHT22;57639;52.410;-1.966;2023-07-02T09:38:53;18.60;53.80
61591;DHT22;57639;52.410;-1.966;2023-07-02T09:42:05;18.60;53.60
61591;DHT22;57639;52.410;-1.966;2023-07-02T09:45:12;18.60;53.50
61591;DHT22;57639;52.410;-1.966;2023-07-02T09:48:21;18.60;53.40
61591;DHT22;57639;52.410;-1.966;2023-07-02T09:51:29;18.60;53.60
61591;DHT22;57639;52.410;-1.966;2023-07-02T09:54:37;18.70;53.40
61591;DHT22;57639;52.410;-1.966;2023-07-02T09:57:47;18.70;53.40
61591;DHT22;57639;52.410;-1.966;2023-07-02T10:00:55;18.70;53.30
61591;DHT22;57639;52.410;-1.966;2023-07-02T10:04:11;18.70;53.30
61591;DHT22;57639;52.410;-1.966;2023-07-02T10:07:27;18.70;53.30
61591;DHT22;57639;52.410;-1.966;2023-07-02T10:10:33;18.70;53.10
61591;DHT22;57639;52.410;-1.966;2023-07-02T10:13:42;18.70;53.10
61591;DHT22;57639;52.410;-1.966;2023-07-02T10:16:50;18.80;53.10
61591;DHT22;57639;52.410;-1.966;2023-07-02T10:19:58;18.70;53.20
61591;DHT22;57639;52.410;-1.966;2023-07-02T10:23:09;18.80;53.10
61591;DHT22;57639;52.410;-1.966;2023-07-02T10:26:17;18.80;53.10
61591;DHT22;57639;52.410;-1.966;2023-07-02T10:29:28;18.80;53.00
61591;DHT22;57639;52.410;-1.966;2023-07-02T10:32:34;18.80;52.90
61591;DHT22;57639;52.410;-1.966;2023-07-02T10:35:42;18.80;52.90
61591;DHT22;57639;52.410;-1.966;2023-07-02T10:38:50;18.80;52.80
61591;DHT22;57639;52.410;-1.966;2023-07-02T10:42:07;18.80;52.70
61591;DHT22;57639;52.410;-1.966;2023-07-02T10:45:17;18.80;52.70
61591;DHT22;57639;52.410;-1.966;2023-07-02T10:48:24;18.80;52.80
61591;DHT22;57639;52.410;-1.966;2023-07-02T10:51:30;18.80;52.80
61591;DHT22;57639;52.410;-1.966;2023-07-02T10:54:43;18.80;52.80
61591;DHT22;57639;52.410;-1.966;2023-07-02T10:58:02;18.80;52.80
61591;DHT22;57639;52.410;-1.966;2023-07-02T11:01:11;18.80;52.70
61591;DHT22;57639;52.410;-1.966;2023-07-02T11:04:21;18.80;52.80
61591;DHT22;57639;52.410;-1.966;2023-07-02T11:07:27;18.80;52.80
61591;DHT22;57639;52.410;-1.966;2023-07-02T11:10:35;18.80;52.80
61591;DHT22;57639;52.410;-1.966;2023-07-02T11:13:45;18.80;52.80
61591;DHT22;57639;52.410;-1.966;2023-07-02T11:16:58;18.80;52.70
61591;DHT22;57639;52.410;-1.966;2023-07-02T11:20:06;18.80;52.50
61591;DHT22;57639;52.410;-1.966;2023-07-02T11:23:18;18.80;52.50
61591;DHT22;57639;52.410;-1.966;2023-07-02T11:26:35;18.80;52.50
61591;DHT22;57639;52.410;-1.966;2023-07-02T11:29:41;18.80;52.60
61591;DHT22;57639;52.410;-1.966;2023-07-02T11:32:53;18.90;52.50
61591;DHT22;57639;52.410;-1.966;2023-07-02T11:36:00;18.90;52.50
61591;DHT22;57639;52.410;-1.966;2023-07-02T11:39:06;18.90;52.50
61591;DHT22;57639;52.410;-1.966;2023-07-02T11:42:12;18.80;52.50
61591;DHT22;57639;52.410;-1.966;2023-07-02T11:45:19;18.80;52.50
61591;DHT22;57639;52.410;-1.966;2023-07-02T11:48:28;18.80;52.60
61591;DHT22;57639;52.410;-1.966;2023-07-02T11:51:35;18.80;52.50
61591;DHT22;57639;52.410;-1.966;2023-07-02T11:54:41;18.80;52.40
61591;DHT22;57639;52.410;-1.966;2023-07-02T11:57:48;18.80;52.40
61591;DHT22;57639;52.410;-1.966;2023-07-02T12:00:54;18.80;52.50
61591;DHT22;57639;52.410;-1.966;2023-07-02T12:04:03;18.80;52.50
61591;DHT22;57639;52.410;-1.966;2023-07-02T12:07:10;18.90;52.50
61591;DHT22;57639;52.410;-1.966;2023-07-02T12:10:16;18.90;52.40
61591;DHT22;57639;52.410;-1.966;2023-07-02T12:13:23;18.80;52.40
61591;DHT22;57639;52.410;-1.966;2023-07-02T12:16:29;18.90;52.40
61591;DHT22;57639;52.410;-1.966;2023-07-02T12:19:38;18.90;52.30
61591;DHT22;57639;52.410;-1.966;2023-07-02T12:22:44;19.00;52.30
61591;DHT22;57639;52.410;-1.966;2023-07-02T12:25:51;19.00;52.20
61591;DHT22;57639;52.410;-1.966;2023-07-02T12:28:57;19.00;52.20
61591;DHT22;57639;52.410;-1.966;2023-07-02T12:32:04;19.00;52.20
61591;DHT22;57639;52.410;-1.966;2023-07-02T12:35:13;19.00;52.20
61591;DHT22;57639;52.410;-1.966;2023-07-02T12:38:19;19.00;52.10
61591;DHT22;57639;52.410;-1.966;2023-07-02T12:41:26;19.00;52.20
61591;DHT22;57639;52.410;-1.966;2023-07-02T12:44:33;19.00;52.10
61591;DHT22;57639;52.410;-1.966;2023-07-02T12:47:39;19.00;52.10
61591;DHT22;57639;52.410;-1.966;2023-07-02T12:50:56;19.00;52.20
61591;DHT22;57639;52.410;-1.966;2023-07-02T12:54:03;19.00;52.20
61591;DHT22;57639;52.410;-1.966;2023-07-02T12:57:09;19.00;52.30
61591;DHT22;57639;52.410;-1.966;2023-07-02T13:00:16;18.90;52.30
61591;DHT22;57639;52.410;-1.966;2023-07-02T13:03:23;19.00;52.30
61591;DHT22;57639;52.410;-1.966;2023-07-02T13:06:33;19.00;52.20
61591;DHT22;57639;52.410;-1.966;2023-07-02T13:09:43;19.00;52.10
61591;DHT22;57639;52.410;-1.966;2023-07-02T13:12:49;18.90;52.30
61591;DHT22;57639;52.410;-1.966;2023-07-02T13:15:56;18.90;52.30
61591;DHT22;57639;52.410;-1.966;2023-07-02T13:19:02;18.90;52.20
61591;DHT22;57639;52.410;-1.966;2023-07-02T13:22:11;19.00;52.30
61591;DHT22;57639;52.410;-1.966;2023-07-02T13:25:18;18.90;52.20
61591;DHT22;57639;52.410;-1.966;2023-07-02T13:28:26;18.90;52.20
61591;DHT22;57639;52.410;-1.966;2023-07-02T13:31:32;18.90;52.20
61591;DHT22;57639;52.410;-1.966;2023-07-02T13:34:38;19.00;52.00
61591;DHT22;57639;52.410;-1.966;2023-07-02T13:37:48;19.00;52.00
61591;DHT22;57639;52.410;-1.966;2023-07-02T13:40:54;19.00;52.00
61591;DHT22;57639;52.410;-1.966;2023-07-02T13:44:00;19.00;51.90
61591;DHT22;57639;52.410;-1.966;2023-07-02T13:47:07;19.10;51.80
61591;DHT22;57639;52.410;-1.966;2023-07-02T13:50:14;19.10;51.80
61591;DHT22;57639;52.410;-1.966;2023-07-02T13:53:23;19.10;51.80
61591;DHT22;57639;52.410;-1.966;2023-07-02T13:56:29;19.10;51.70
61591;DHT22;57639;52.410;-1.966;2023-07-02T13:59:38;19.10;51.70
61591;DHT22;57639;52.410;-1.966;2023-07-02T14:02:44;19.10;51.70
61591;DHT22;57639;52.410;-1.966;2023-07-02T14:05:51;19.10;51.70
61591;DHT22;57639;52.410;-1.966;2023-07-02T14:08:57;19.10;51.70
61591;DHT22;57639;52.410;-1.966;2023-07-02T14:12:04;19.10;51.80
61591;DHT22;57639;52.410;-1.966;2023-07-02T14:15:13;19.10;51.60
61591;DHT22;57639;52.410;-1.966;2023-07-02T14:18:20;19.10;51.70
61591;DHT22;57639;52.410;-1.966;2023-07-02T14:21:26;19.10;51.70
61591;DHT22;57639;52.410;-1.966;2023-07-02T14:24:34;19.10;51.80
61591;DHT22;57639;52.410;-1.966;2023-07-02T14:27:40;19.10;51.80
61591;DHT22;57639;52.410;-1.966;2023-07-02T14:30:55;19.10;51.90
61591;DHT22;57639;52.410;-1.966;2023-07-02T14:34:02;19.10;51.80
61591;DHT22;57639;52.410;-1.966;2023-07-02T14:37:08;19.10;51.70
61591;DHT22;57639;52.410;-1.966;2023-07-02T14:40:17;19.10;51.70
61591;DHT22;57639;52.410;-1.966;2023-07-02T14:43:25;19.10;51.50
61591;DHT22;57639;52.410;-1.966;2023-07-02T14:46:35;19.10;51.50
61591;DHT22;57639;52.410;-1.966;2023-07-02T14:49:41;19.10;51.40
61591;DHT22;57639;52.410;-1.966;2023-07-02T14:52:47;19.10;51.40
61591;DHT22;57639;52.410;-1.966;2023-07-02T14:55:55;19.10;51.50
61591;DHT22;57639;52.410;-1.966;2023-07-02T14:59:02;19.10;51.50
61591;DHT22;57639;52.410;-1.966;2023-07-02T15:02:12;19.10;51.40
61591;DHT22;57639;52.410;-1.966;2023-07-02T15:05:19;19.10;51.40
61591;DHT22;57639;52.410;-1.966;2023-07-02T15:08:25;19.10;51.40
61591;DHT22;57639;52.410;-1.966;2023-07-02T15:11:32;19.10;51.30
61591;DHT22;57639;52.410;-1.966;2023-07-02T15:14:39;19.20;51.40
61591;DHT22;57639;52.410;-1.966;2023-07-02T15:17:48;19.20;51.20
61591;DHT22;57639;52.410;-1.966;2023-07-02T15:20:55;19.20;51.20
61591;DHT22;57639;52.410;-1.966;2023-07-02T15:24:01;19.10;51.20
61591;DHT22;57639;52.410;-1.966;2023-07-02T15:27:08;19.20;51.10
61591;DHT22;57639;52.410;-1.966;2023-07-02T15:30:14;19.20;51.30
61591;DHT22;57639;52.410;-1.966;2023-07-02T15:33:24;19.20;51.30
61591;DHT22;57639;52.410;-1.966;2023-07-02T15:36:30;19.20;51.50
61591;DHT22;57639;52.410;-1.966;2023-07-02T15:39:38;19.20;51.40
61591;DHT22;57639;52.410;-1.966;2023-07-02T15:42:44;19.10;51.60
61591;DHT22;57639;52.410;-1.966;2023-07-02T15:45:59;19.10;51.50
61591;DHT22;57639;52.410;-1.966;2023-07-02T15:49:08;19.10;51.60
61591;DHT22;57639;52.410;-1.966;2023-07-02T15:52:18;19.10;51.50
61591;DHT22;57639;52.410;-1.966;2023-07-02T15:55:25;19.10;51.50
61591;DHT22;57639;52.410;-1.966;2023-07-02T15:58:32;19.10;51.60
61591;DHT22;57639;52.410;-1.966;2023-07-02T16:01:38;19.20;51.60
61591;DHT22;57639;52.410;-1.966;2023-07-02T16:04:50;19.10;51.60
61591;DHT22;57639;52.410;-1.966;2023-07-02T16:07:56;19.10;51.70
61591;DHT22;57639;52.410;-1.966;2023-07-02T16:11:04;19.10;51.60
61591;DHT22;57639;52.410;-1.966;2023-07-02T16:14:14;19.10;51.80
61591;DHT22;57639;52.410;-1.966;2023-07-02T16:17:21;19.10;51.90
61591;DHT22;57639;52.410;-1.966;2023-07-02T16:20:30;19.10;51.80
61591;DHT22;57639;52.410;-1.966;2023-07-02T16:23:36;19.10;51.60
61591;DHT22;57639;52.410;-1.966;2023-07-02T16:26:43;19.10;51.50
61591;DHT22;57639;52.410;-1.966;2023-07-02T16:29:49;19.10;51.40
61591;DHT22;57639;52.410;-1.966;2023-07-02T16:32:55;19.10;51.20
61591;DHT22;57639;52.410;-1.966;2023-07-02T16:36:07;19.20;51.10
61591;DHT22;57639;52.410;-1.966;2023-07-02T16:39:15;19.20;51.00
61591;DHT22;57639;52.410;-1.966;2023-07-02T16:42:21;19.10;51.10
61591;DHT22;57639;52.410;-1.966;2023-07-02T16:45:28;19.10;51.00
61591;DHT22;57639;52.410;-1.966;2023-07-02T16:48:34;19.20;51.00
61591;DHT22;57639;52.410;-1.966;2023-07-02T16:51:44;19.10;51.10
61591;DHT22;57639;52.410;-1.966;2023-07-02T16:54:50;19.20;51.40
61591;DHT22;57639;52.410;-1.966;2023-07-02T16:57:56;19.20;51.40
61591;DHT22;57639;52.410;-1.966;2023-07-02T17:01:04;19.20;51.40
61591;DHT22;57639;52.410;-1.966;2023-07-02T17:04:11;19.20;51.60
61591;DHT22;57639;52.410;-1.966;2023-07-02T17:07:21;19.10;51.50
61591;DHT22;57639;52.410;-1.966;2023-07-02T17:10:27;19.10;51.60
61591;DHT22;57639;52.410;-1.966;2023-07-02T17:13:34;19.10;51.70
61591;DHT22;57639;52.410;-1.966;2023-07-02T17:16:40;19.10;51.70
61591;DHT22;57639;52.410;-1.966;2023-07-02T17:19:49;19.10;51.70
61591;DHT22;57639;52.410;-1.966;2023-07-02T17:22:59;19.10;51.60
61591;DHT22;57639;52.410;-1.966;2023-07-02T17:26:05;19.10;51.70
61591;DHT22;57639;52.410;-1.966;2023-07-02T17:29:14;19.10;51.60
61591;DHT22;57639;52.410;-1.966;2023-07-02T17:32:24;19.20;51.80
61591;DHT22;57639;52.410;-1.966;2023-07-02T17:35:30;19.10;51.60
61591;DHT22;57639;52.410;-1.966;2023-07-02T17:38:45;19.10;51.90
61591;DHT22;57639;52.410;-1.966;2023-07-02T17:41:53;19.10;51.70
61591;DHT22;57639;52.410;-1.966;2023-07-02T17:45:00;19.10;52.00
61591;DHT22;57639;52.410;-1.966;2023-07-02T17:48:06;19.10;52.10
61591;DHT22;57639;52.410;-1.966;2023-07-02T17:51:12;19.10;52.00
61591;DHT22;57639;52.410;-1.966;2023-07-02T17:54:22;19.10;52.50
61591;DHT22;57639;52.410;-1.966;2023-07-02T17:57:29;19.10;53.00
61591;DHT22;57639;52.410;-1.966;2023-07-02T18:00:35;19.00;53.20
61591;DHT22;57639;52.410;-1.966;2023-07-02T18:03:41;19.10;53.50
61591;DHT22;57639;52.410;-1.966;2023-07-02T18:06:48;19.10;53.60
61591;DHT22;57639;52.410;-1.966;2023-07-02T18:09:57;19.10;53.40
61591;DHT22;57639;52.410;-1.966;2023-07-02T18:13:06;19.10;53.60
61591;DHT22;57639;52.410;-1.966;2023-07-02T18:16:12;19.10;53.60
61591;DHT22;57639;52.410;-1.966;2023-07-02T18:19:19;19.20;53.60
61591;DHT22;57639;52.410;-1.966;2023-07-02T18:22:28;19.20;53.90
61591;DHT22;57639;52.410;-1.966;2023-07-02T18:25:37;19.20;54.70
61591;DHT22;57639;52.410;-1.966;2023-07-02T18:28:43;19.10;55.00
61591;DHT22;57639;52.410;-1.966;2023-07-02T18:31:50;19.20;55.10
61591;DHT22;57639;52.410;-1.966;2023-07-02T18:34:56;19.10;55.20
61591;DHT22;57639;52.410;-1.966;2023-07-02T18:38:03;19.10;55.30
61591;DHT22;57639;52.410;-1.966;2023-07-02T18:41:12;19.10;55.20
61591;DHT22;57639;52.410;-1.966;2023-07-02T18:44:19;19.10;55.20
61591;DHT22;57639;52.410;-1.966;2023-07-02T18:47:25;19.10;55.20
61591;DHT22;57639;52.410;-1.966;2023-07-02T18:50:32;19.10;55.10
61591;DHT22;57639;52.410;-1.966;2023-07-02T18:53:38;19.10;55.10
61591;DHT22;57639;52.410;-1.966;2023-07-02T18:56:47;19.20;54.90
61591;DHT22;57639;52.410;-1.966;2023-07-02T19:00:03;19.10;54.80
61591;DHT22;57639;52.410;-1.966;2023-07-02T19:03:11;19.10;54.80
61591;DHT22;57639;52.410;-1.966;2023-07-02T19:06:17;19.20;54.80
61591;DHT22;57639;52.410;-1.966;2023-07-02T19:09:23;19.10;54.70
61591;DHT22;57639;52.410;-1.966;2023-07-02T19:12:37;19.20;54.70
61591;DHT22;57639;52.410;-1.966;2023-07-02T19:15:45;19.20;54.70
61591;DHT22;57639;52.410;-1.966;2023-07-02T19:18:51;19.10;54.70
61591;DHT22;57639;52.410;-1.966;2023-07-02T19:21:57;19.10;54.60
61591;DHT22;57639;52.410;-1.966;2023-07-02T19:25:04;19.10;54.10
61591;DHT22;57639;52.410;-1.966;2023-07-02T19:28:16;19.20;54.00